createdAt,value
2023-02-23T00:01:53.467Z,5.93
2023-02-23T00:04:21.517Z,6.23
2023-02-23T00:06:52.130Z,6.07
2023-02-23T00:09:24.248Z,6.17
2023-02-23T00:11:53.214Z,5.70
2023-02-23T00:14:21.209Z,6.20
2023-02-23T00:16:49.131Z,5.60
2023-02-23T00:19:17.574Z,6.10
2023-02-23T00:21:46.708Z,5.83
2023-02-23T00:24:16.766Z,5.33
2023-02-23T00:26:45.400Z,6.20
2023-02-23T00:29:17.402Z,5.40
2023-02-23T00:31:46.170Z,6.00
2023-02-23T00:34:15.984Z,5.30
2023-02-23T00:36:44.221Z,5.07
2023-02-23T00:39:22.598Z,5.47
2023-02-23T00:41:52.535Z,5.00
2023-02-23T00:44:21.750Z,5.00
2023-02-23T00:46:51.495Z,4.77
2023-02-23T00:49:21.879Z,4.93
2023-02-23T00:51:50.103Z,5.07
2023-02-23T00:54:21.050Z,5.10
2023-02-23T00:56:49.466Z,5.07
2023-02-23T00:59:18.324Z,4.97
2023-02-23T01:01:46.517Z,5.13
2023-02-23T01:04:15.118Z,5.80
2023-02-23T01:06:43.224Z,4.90
2023-02-23T01:09:13.563Z,5.33
2023-02-23T01:11:46.630Z,5.37
2023-02-23T01:14:15.733Z,5.53
2023-02-23T01:16:43.672Z,4.90
2023-02-23T01:19:11.824Z,4.97
2023-02-23T01:21:43.389Z,5.47
2023-02-23T01:24:12.841Z,4.87
2023-02-23T01:26:44.075Z,5.53
2023-02-23T01:29:14.065Z,5.37
2023-02-23T01:31:44.121Z,5.47
2023-02-23T01:34:14.166Z,5.37
2023-02-23T01:36:44.117Z,5.53
2023-02-23T01:39:14.785Z,6.00
2023-02-23T01:41:44.617Z,5.70
2023-02-23T01:44:46.009Z,6.40
2023-02-23T01:47:15.348Z,6.33
2023-02-23T01:49:43.364Z,6.90
2023-02-23T01:52:14.263Z,6.30
2023-02-23T01:54:50.541Z,6.73
2023-02-23T01:57:24.996Z,6.73
2023-02-23T01:59:54.977Z,7.33
2023-02-23T02:02:33.588Z,6.73
2023-02-23T02:05:04.844Z,6.83
2023-02-23T02:07:35.167Z,7.27
2023-02-23T02:10:39.077Z,7.00
2023-02-23T02:13:10.255Z,6.43
2023-02-23T02:15:53.779Z,7.67
2023-02-23T02:18:30.796Z,7.03
2023-02-23T02:21:24.994Z,7.43
2023-02-23T02:24:23.008Z,8.03
2023-02-23T02:27:05.209Z,7.47
2023-02-23T02:30:15.081Z,7.00
2023-02-23T02:33:32.027Z,7.33
2023-02-23T02:36:26.333Z,6.77
2023-02-23T02:39:08.060Z,5.93
2023-02-23T02:41:42.322Z,6.57
2023-02-23T02:44:16.412Z,6.53
2023-02-23T02:46:48.962Z,7.60
2023-02-23T02:49:26.649Z,6.93
2023-02-23T02:51:59.402Z,6.83
2023-02-23T02:54:33.781Z,7.23
2023-02-23T02:57:04.668Z,7.33
2023-02-23T03:00:00.540Z,7.13
2023-02-23T03:02:47.362Z,6.97
2023-02-23T03:05:34.120Z,6.77
2023-02-23T03:08:29.880Z,7.70
2023-02-23T03:11:21.788Z,6.93
2023-02-23T03:14:18.376Z,7.20
2023-02-23T03:17:14.633Z,7.17
2023-02-23T03:20:06.990Z,6.53
2023-02-23T03:23:00.158Z,6.87
2023-02-23T03:25:51.301Z,6.87
2023-02-23T03:28:43.621Z,6.67
2023-02-23T03:31:34.700Z,6.37
2023-02-23T03:34:28.018Z,6.67
2023-02-23T03:37:22.598Z,6.17
2023-02-23T03:40:15.697Z,5.77
2023-02-23T03:43:02.973Z,6.10
2023-02-23T03:45:50.565Z,6.63
2023-02-23T03:48:38.607Z,6.33
2023-02-23T03:51:27.639Z,6.23
2023-02-23T03:54:18.348Z,6.60
2023-02-23T03:57:07.287Z,6.07
2023-02-23T03:59:57.124Z,6.13
2023-02-23T04:02:45.180Z,6.30
2023-02-23T04:05:36.337Z,6.73
2023-02-23T04:08:25.313Z,6.17
2023-02-23T04:11:17.682Z,6.10
2023-02-23T04:13:48.851Z,6.73
2023-02-23T04:16:16.249Z,6.10
2023-02-23T04:18:45.675Z,5.87
2023-02-23T04:21:13.612Z,7.07
2023-02-23T04:23:43.501Z,6.37
2023-02-23T04:26:11.417Z,6.73
2023-02-23T04:28:39.342Z,6.83
2023-02-23T04:31:07.257Z,7.20
2023-02-23T04:33:35.189Z,6.57
2023-02-23T04:36:05.061Z,6.50
2023-02-23T04:38:33.079Z,7.03
2023-02-23T04:41:00.969Z,6.37
2023-02-23T04:43:29.150Z,6.63
2023-02-23T04:45:57.115Z,6.77
2023-02-23T04:48:26.684Z,7.03
2023-02-23T04:50:55.340Z,7.20
2023-02-23T04:53:25.477Z,6.70
2023-02-23T04:55:53.553Z,7.00
2023-02-23T04:58:21.688Z,6.93
2023-02-23T05:00:49.925Z,6.70
2023-02-23T05:03:18.365Z,6.17
2023-02-23T05:05:46.993Z,6.87
2023-02-23T05:08:14.904Z,6.77
2023-02-23T05:10:44.143Z,7.33
2023-02-23T05:13:12.078Z,6.50
2023-02-23T05:15:40.125Z,7.17
2023-02-23T05:18:08.300Z,6.23
2023-02-23T05:20:36.301Z,6.33
2023-02-23T05:23:04.362Z,6.10
2023-02-23T05:25:32.687Z,5.83
2023-02-23T05:28:02.438Z,5.70
2023-02-23T05:30:30.482Z,5.70
2023-02-23T05:32:58.397Z,6.70
2023-02-23T05:35:26.455Z,6.53
2023-02-23T05:37:54.378Z,6.23
2023-02-23T05:40:22.515Z,7.07
2023-02-23T05:42:50.397Z,7.13
2023-02-23T05:45:19.693Z,6.97
2023-02-23T05:47:48.077Z,7.67
2023-02-23T05:50:15.965Z,8.60
2023-02-23T05:52:43.941Z,7.17
2023-02-23T05:55:13.385Z,6.47
2023-02-23T05:57:42.805Z,6.23
2023-02-23T06:00:13.375Z,6.23
2023-02-23T06:02:42.711Z,6.47
2023-02-23T06:05:11.528Z,6.17
2023-02-23T06:07:40.018Z,6.27
2023-02-23T06:10:08.987Z,6.63
2023-02-23T06:12:36.960Z,6.37
2023-02-23T06:15:05.456Z,6.07
2023-02-23T06:17:33.745Z,6.63
2023-02-23T06:20:04.774Z,6.67
2023-02-23T06:22:32.845Z,6.00
2023-02-23T06:25:02.486Z,6.40
2023-02-23T06:27:30.424Z,6.47
2023-02-23T06:29:58.377Z,7.10
2023-02-23T06:32:26.984Z,7.10
2023-02-23T06:34:56.221Z,6.93
2023-02-23T06:37:26.953Z,6.20
2023-02-23T06:39:54.898Z,5.90
2023-02-23T06:42:23.178Z,6.57
2023-02-23T06:44:51.244Z,6.23
2023-02-23T06:47:19.629Z,5.87
2023-02-23T06:49:47.750Z,7.10
2023-02-23T06:52:16.251Z,6.27
2023-02-23T06:54:45.974Z,6.00
2023-02-23T06:57:13.913Z,6.60
2023-02-23T06:59:42.669Z,5.90
2023-02-23T07:02:12.259Z,6.97
2023-02-23T07:04:40.156Z,6.67
2023-02-23T07:07:08.105Z,6.30
2023-02-23T07:09:36.026Z,6.30
2023-02-23T07:12:05.518Z,6.83
2023-02-23T07:14:34.156Z,6.20
2023-02-23T07:17:02.131Z,6.17
2023-02-23T07:19:30.134Z,6.83
2023-02-23T07:21:58.058Z,6.80
2023-02-23T07:24:28.194Z,6.30
2023-02-23T07:26:56.738Z,6.67
2023-02-23T07:29:28.182Z,6.53
2023-02-23T07:31:56.709Z,6.97
2023-02-23T07:34:24.832Z,6.90
2023-02-23T07:36:52.819Z,5.97
2023-02-23T07:39:20.796Z,6.50
2023-02-23T07:41:48.689Z,7.43
2023-02-23T07:44:19.876Z,7.80
2023-02-23T07:46:49.512Z,7.30
2023-02-23T07:49:17.409Z,6.63
2023-02-23T07:51:45.408Z,6.67
2023-02-23T07:54:13.499Z,6.20
2023-02-23T07:56:41.394Z,6.30
2023-02-23T07:59:09.364Z,6.20
2023-02-23T08:01:37.272Z,6.40
2023-02-23T08:04:06.937Z,6.00
2023-02-23T08:06:35.075Z,6.47
2023-02-23T08:09:04.120Z,6.47
2023-02-23T08:11:32.542Z,6.77
2023-02-23T08:14:01.015Z,6.43
2023-02-23T08:16:29.325Z,7.03
2023-02-23T08:18:58.261Z,7.10
2023-02-23T08:21:29.283Z,6.40
2023-02-23T08:23:57.869Z,6.60
2023-02-23T08:26:26.257Z,7.30
2023-02-23T08:28:54.527Z,5.80
2023-02-23T08:31:24.370Z,6.80
2023-02-23T08:33:53.345Z,6.67
2023-02-23T08:36:21.297Z,6.13
2023-02-23T08:38:50.813Z,6.10
2023-02-23T08:41:19.309Z,6.37
2023-02-23T08:43:48.739Z,6.77
2023-02-23T08:46:18.770Z,7.00
2023-02-23T08:48:47.071Z,6.60
2023-02-23T08:51:15.703Z,6.73
2023-02-23T08:53:43.621Z,6.57
2023-02-23T08:56:15.393Z,7.47
2023-02-23T08:58:43.912Z,7.43
2023-02-23T09:01:18.789Z,7.40
2023-02-23T09:03:47.108Z,7.73
2023-02-23T09:06:17.503Z,7.20
2023-02-23T09:08:45.493Z,7.00
2023-02-23T09:11:15.038Z,7.40
2023-02-23T09:13:43.066Z,7.47
2023-02-23T09:16:11.067Z,6.80
2023-02-23T09:18:39.333Z,6.90
2023-02-23T09:21:10.891Z,7.30
2023-02-23T09:23:38.945Z,6.73
2023-02-23T09:26:08.519Z,7.73
2023-02-23T09:28:40.482Z,7.00
2023-02-23T09:31:10.109Z,6.57
2023-02-23T09:33:38.367Z,6.83
2023-02-23T09:36:07.634Z,6.47
2023-02-23T09:38:35.742Z,6.40
2023-02-23T09:41:03.672Z,6.87
2023-02-23T09:43:36.398Z,7.00
2023-02-23T09:46:15.283Z,6.93
2023-02-23T09:48:44.013Z,7.03
2023-02-23T09:51:18.716Z,7.90
2023-02-23T09:53:51.981Z,7.87
2023-02-23T09:56:26.139Z,7.20
2023-02-23T09:58:54.139Z,6.77
2023-02-23T10:01:51.105Z,7.80
2023-02-23T10:04:24.441Z,7.27
2023-02-23T10:06:58.674Z,6.80
2023-02-23T10:09:39.242Z,6.90
2023-02-23T10:12:11.302Z,7.17
2023-02-23T10:14:58.388Z,7.03
2023-02-23T10:17:36.589Z,7.20
2023-02-23T10:20:14.528Z,7.20
2023-02-23T10:22:43.396Z,6.37
2023-02-23T10:25:14.477Z,7.30
2023-02-23T10:27:45.167Z,6.97
2023-02-23T10:30:19.919Z,7.33
2023-02-23T10:32:58.623Z,7.33
2023-02-23T10:35:30.251Z,7.40
2023-02-23T10:37:59.562Z,7.10
2023-02-23T10:40:29.796Z,7.03
2023-02-23T10:42:59.228Z,7.20
2023-02-23T10:45:28.976Z,7.40
2023-02-23T10:48:01.430Z,6.77
2023-02-23T10:50:31.380Z,6.87
2023-02-23T10:53:01.822Z,7.30
2023-02-23T10:55:31.413Z,6.70
2023-02-23T10:58:05.471Z,6.63
2023-02-23T11:00:36.915Z,7.80
2023-02-23T11:03:19.757Z,7.63
2023-02-23T11:05:53.083Z,6.90
2023-02-23T11:08:24.062Z,6.90
2023-02-23T11:11:00.316Z,7.30
2023-02-23T11:13:29.679Z,7.33
2023-02-23T11:16:02.326Z,6.90
2023-02-23T11:18:32.017Z,6.57
2023-02-23T11:21:00.615Z,6.97
2023-02-23T11:23:30.896Z,6.97
2023-02-23T11:26:01.423Z,7.03
2023-02-23T11:28:32.579Z,6.97
2023-02-23T11:31:04.364Z,7.03
2023-02-23T11:33:37.316Z,6.63
2023-02-23T11:36:18.344Z,6.60
2023-02-23T11:38:47.690Z,6.70
2023-02-23T11:41:24.096Z,6.93
2023-02-23T11:43:54.781Z,7.37
2023-02-23T11:46:23.850Z,7.00
2023-02-23T11:48:59.641Z,7.23
2023-02-23T11:51:30.033Z,6.53
2023-02-23T11:53:58.870Z,7.03
2023-02-23T11:56:28.908Z,7.13
2023-02-23T11:59:00.326Z,6.73
2023-02-23T12:01:44.706Z,7.40
2023-02-23T12:04:30.395Z,7.13
2023-02-23T12:07:24.911Z,6.83
2023-02-23T12:10:00.571Z,6.70
2023-02-23T12:12:30.873Z,7.07
2023-02-23T12:15:09.450Z,7.20
2023-02-23T12:17:43.795Z,6.27
2023-02-23T12:20:18.782Z,7.07
2023-02-23T12:22:51.365Z,6.90
2023-02-23T12:25:26.947Z,7.93
2023-02-23T12:28:17.976Z,6.93
2023-02-23T12:30:52.093Z,7.00
2023-02-23T12:33:27.080Z,6.73
2023-02-23T12:36:00.294Z,6.67
2023-02-23T12:38:37.904Z,7.10
2023-02-23T12:41:12.417Z,6.73
2023-02-23T12:43:51.543Z,6.90
2023-02-23T12:46:23.033Z,6.23
2023-02-23T12:49:02.175Z,6.30
2023-02-23T12:51:35.212Z,6.63
2023-02-23T12:54:03.815Z,6.67
2023-02-23T12:56:42.078Z,6.40
2023-02-23T12:59:27.212Z,7.70
2023-02-23T13:01:58.472Z,6.40
2023-02-23T13:04:58.309Z,6.77
2023-02-23T13:07:38.064Z,7.10
2023-02-23T13:10:17.002Z,6.90
2023-02-23T13:12:53.961Z,6.10
2023-02-23T13:15:30.063Z,6.43
2023-02-23T13:18:03.777Z,6.40
2023-02-23T13:20:36.358Z,5.90
2023-02-23T13:23:12.709Z,6.97
2023-02-23T13:25:50.308Z,6.60
2023-02-23T13:28:21.881Z,6.77
2023-02-23T13:30:49.979Z,7.27
2023-02-23T13:33:41.926Z,6.70
2023-02-23T13:36:12.817Z,6.10
2023-02-23T13:38:54.791Z,7.20
2023-02-23T13:41:32.756Z,6.00
2023-02-23T13:44:08.383Z,6.50
2023-02-23T13:46:48.316Z,6.60
2023-02-23T13:49:25.429Z,6.50
2023-02-23T13:51:58.312Z,5.60
2023-02-23T13:54:33.910Z,19.03
2023-02-23T13:57:05.581Z,6.70
2023-02-23T13:59:42.470Z,6.53
2023-02-23T14:02:36.491Z,6.20
2023-02-23T14:05:07.444Z,6.33
2023-02-23T14:07:42.374Z,5.77
2023-02-23T14:10:20.523Z,6.40
2023-02-23T14:13:25.434Z,8.87
2023-02-23T14:16:18.493Z,8.70
2023-02-23T14:19:13.989Z,5.63
2023-02-23T14:21:49.961Z,6.10
2023-02-23T14:24:21.438Z,6.10
2023-02-23T14:27:40.211Z,7.10
2023-02-23T14:30:25.338Z,5.50
2023-02-23T14:32:54.734Z,5.97
2023-02-23T14:35:49.176Z,6.00
2023-02-23T14:38:35.947Z,6.23
2023-02-23T14:41:12.040Z,6.40
2023-02-23T14:43:46.305Z,6.37
2023-02-23T14:46:22.712Z,6.00
2023-02-23T14:49:02.598Z,5.87
2023-02-23T14:51:42.416Z,7.00
2023-02-23T14:54:22.127Z,6.13
2023-02-23T14:56:51.547Z,7.23
2023-02-23T14:59:22.757Z,6.60
2023-02-23T15:01:53.074Z,6.40
2023-02-23T15:04:23.728Z,6.47
2023-02-23T15:06:56.223Z,6.37
2023-02-23T15:09:30.931Z,6.33
2023-02-23T15:12:01.327Z,6.63
2023-02-23T15:14:32.679Z,6.13
2023-02-23T15:17:01.928Z,11.13
2023-02-23T15:19:33.988Z,10.47
2023-02-23T15:22:03.928Z,11.90
2023-02-23T15:24:34.685Z,10.30
2023-02-23T15:27:02.652Z,7.67
2023-02-23T15:29:33.894Z,7.03
2023-02-23T15:32:18.749Z,9.60
2023-02-23T15:34:47.011Z,8.77
2023-02-23T15:37:24.114Z,7.77
2023-02-23T15:39:56.852Z,8.17
2023-02-23T15:42:28.063Z,7.20
2023-02-23T15:45:02.673Z,8.03
2023-02-23T15:47:37.571Z,7.10
2023-02-23T15:50:16.488Z,7.10
2023-02-23T15:52:50.720Z,7.13
2023-02-23T15:55:24.931Z,7.30
2023-02-23T15:57:58.753Z,7.93
2023-02-23T16:00:33.632Z,7.80
2023-02-23T16:03:05.372Z,9.30
2023-02-23T16:05:41.746Z,8.03
2023-02-23T16:08:22.916Z,8.03
2023-02-23T16:10:55.034Z,8.07
2023-02-23T16:13:23.660Z,8.80
2023-02-23T16:15:54.968Z,8.47
2023-02-23T16:18:35.041Z,8.83
2023-02-23T16:21:04.904Z,8.27
2023-02-23T16:23:36.934Z,8.87
2023-02-23T16:26:12.070Z,9.27
2023-02-23T16:28:44.580Z,9.30
2023-02-23T16:31:14.403Z,9.10
2023-02-23T16:33:48.561Z,10.83
2023-02-23T16:36:21.579Z,11.20
2023-02-23T16:38:58.927Z,10.87
2023-02-23T16:41:28.441Z,11.00
2023-02-23T16:43:58.943Z,9.93
2023-02-23T16:46:30.904Z,11.20
2023-02-23T16:49:05.327Z,11.80
2023-02-23T16:51:35.634Z,12.13
2023-02-23T16:54:04.581Z,15.10
2023-02-23T16:56:32.895Z,14.10
2023-02-23T16:59:03.887Z,14.23
2023-02-23T17:01:31.908Z,13.13
2023-02-23T17:04:01.225Z,14.00
2023-02-23T17:06:29.672Z,12.60
2023-02-23T17:08:57.974Z,11.93
2023-02-23T17:11:26.578Z,12.10
2023-02-23T17:13:54.565Z,10.90
2023-02-23T17:16:22.868Z,10.73
2023-02-23T17:18:51.015Z,10.30
2023-02-23T17:24:26.139Z,9.70
2023-02-23T17:26:55.342Z,11.30
2023-02-23T17:29:24.442Z,9.20
2023-02-23T17:31:53.124Z,8.93
2023-02-23T17:34:21.623Z,9.80
2023-02-23T17:36:49.577Z,10.27
2023-02-23T17:39:17.829Z,10.83
2023-02-23T17:41:47.411Z,13.80
2023-02-23T17:44:15.462Z,17.77
2023-02-23T17:46:43.556Z,15.27
2023-02-23T17:49:11.533Z,11.50
2023-02-23T17:51:39.744Z,10.23
2023-02-23T17:54:09.432Z,10.27
2023-02-23T17:56:37.808Z,10.03
2023-02-23T17:59:07.371Z,12.03
2023-02-23T18:01:35.366Z,11.60
2023-02-23T18:04:03.528Z,13.37
2023-02-23T18:06:31.753Z,12.03
2023-02-23T18:09:01.166Z,10.67
2023-02-23T18:11:29.195Z,9.97
2023-02-23T18:13:57.337Z,10.90
2023-02-23T18:16:27.114Z,11.07
2023-02-23T18:18:57.567Z,11.53
2023-02-23T18:21:26.023Z,11.00
2023-02-23T18:23:54.488Z,11.70
2023-02-23T18:26:24.505Z,13.57
2023-02-23T18:28:54.088Z,12.93
2023-02-23T18:31:24.307Z,13.03
2023-02-23T18:33:54.367Z,12.73
2023-02-23T18:36:26.233Z,13.17
2023-02-23T18:38:54.537Z,13.13
2023-02-23T18:41:22.659Z,12.63
2023-02-23T18:43:50.835Z,12.03
2023-02-23T18:46:19.653Z,12.40
2023-02-23T18:48:50.672Z,13.90
2023-02-23T18:51:20.978Z,16.17
2023-02-23T18:53:49.962Z,14.50
2023-02-23T18:56:23.153Z,13.33
2023-02-23T18:58:52.416Z,12.90
2023-02-23T19:01:23.869Z,15.40
2023-02-23T19:03:53.245Z,14.77
2023-02-23T19:06:24.179Z,13.57
2023-02-23T19:08:54.605Z,14.30
2023-02-23T19:11:24.625Z,13.17
2023-02-23T19:13:53.188Z,14.20
2023-02-23T19:16:21.978Z,15.00
2023-02-23T19:18:50.914Z,14.30
2023-02-23T19:21:22.810Z,13.87
2023-02-23T19:23:53.395Z,12.93
2023-02-23T19:26:21.777Z,13.47
2023-02-23T19:28:50.205Z,14.43
2023-02-23T19:31:21.135Z,15.57
2023-02-23T19:33:51.092Z,14.20
2023-02-23T19:36:20.987Z,14.77
2023-02-23T19:38:50.256Z,16.00
2023-02-23T19:41:21.983Z,16.47
2023-02-23T19:43:50.446Z,14.50
2023-02-23T19:46:18.656Z,13.73
2023-02-23T19:48:51.830Z,14.13
2023-02-23T19:51:20.452Z,14.77
2023-02-23T19:53:48.699Z,14.33
2023-02-23T19:56:19.002Z,14.63
2023-02-23T19:58:49.304Z,15.30
2023-02-23T20:01:19.678Z,15.33
2023-02-23T20:03:55.311Z,15.77
2023-02-23T20:06:25.972Z,16.47
2023-02-23T20:08:55.110Z,15.10
2023-02-23T20:11:24.855Z,15.87
2023-02-23T20:13:53.188Z,16.67
2023-02-23T20:16:22.503Z,17.03
2023-02-23T20:18:50.925Z,16.87
2023-02-23T20:21:23.465Z,16.97
2023-02-23T20:23:52.809Z,16.30
2023-02-23T20:26:26.280Z,16.17
2023-02-23T20:28:56.584Z,18.40
2023-02-23T20:31:27.486Z,18.87
2023-02-23T20:33:57.384Z,18.77
2023-02-23T20:36:26.460Z,17.20
2023-02-23T20:38:54.616Z,18.53
2023-02-23T20:41:23.614Z,16.07
2023-02-23T20:43:52.002Z,17.63
2023-02-23T20:46:21.848Z,18.67
2023-02-23T20:48:50.012Z,17.57
2023-02-23T20:51:19.848Z,19.63
2023-02-23T20:53:49.139Z,21.97
2023-02-23T20:56:19.125Z,21.53
2023-02-23T20:58:47.910Z,20.13
2023-02-23T21:01:16.969Z,21.07
2023-02-23T21:03:46.530Z,21.77
2023-02-23T21:06:16.031Z,21.80
2023-02-23T21:08:46.237Z,22.60
2023-02-23T21:11:14.332Z,21.60
2023-02-23T21:13:42.279Z,19.30
2023-02-23T21:16:14.884Z,20.23
2023-02-23T21:18:43.302Z,22.23
2023-02-23T21:21:15.640Z,25.00
2023-02-23T21:23:44.753Z,28.63
2023-02-23T21:26:15.780Z,24.00
2023-02-23T21:28:45.498Z,24.70
2023-02-23T21:31:15.734Z,21.47
2023-02-23T21:33:45.003Z,22.10
2023-02-23T21:36:14.553Z,20.07
2023-02-23T21:38:44.534Z,21.53
2023-02-23T21:41:14.368Z,20.57
2023-02-23T21:43:44.489Z,21.07
2023-02-23T21:46:14.332Z,21.57
2023-02-23T21:48:42.850Z,23.73
2023-02-23T21:51:15.677Z,23.07
2023-02-23T21:53:45.343Z,22.13
2023-02-23T21:56:15.800Z,21.77
2023-02-23T21:58:46.375Z,23.20
2023-02-23T22:01:16.283Z,22.07
2023-02-23T22:03:46.013Z,22.73
2023-02-23T22:06:16.803Z,23.37
2023-02-23T22:08:45.178Z,24.40
2023-02-23T22:11:17.243Z,21.97
2023-02-23T22:13:45.683Z,24.10
2023-02-23T22:16:14.483Z,23.90
2023-02-23T22:18:43.087Z,21.97
2023-02-23T22:21:12.730Z,22.27
2023-02-23T22:23:43.847Z,21.93
2023-02-23T22:26:12.562Z,22.43
2023-02-23T22:28:40.934Z,22.47
2023-02-23T22:31:11.910Z,22.63
2023-02-23T22:33:42.952Z,22.07
2023-02-23T22:36:12.961Z,23.13
2023-02-23T22:38:42.704Z,21.53
2023-02-23T22:41:11.547Z,22.27
2023-02-23T22:43:40.370Z,23.03
2023-02-23T22:46:08.832Z,22.17
2023-02-23T22:48:38.128Z,21.77
2023-02-23T22:51:07.763Z,22.40
2023-02-23T22:53:35.697Z,23.33
2023-02-23T22:56:05.460Z,23.13
2023-02-23T22:58:33.689Z,25.23
2023-02-23T23:01:05.850Z,23.07
2023-02-23T23:03:37.177Z,22.50
2023-02-23T23:06:08.055Z,23.20
2023-02-23T23:08:39.068Z,23.50
2023-02-23T23:11:12.021Z,24.20
2023-02-23T23:13:44.439Z,23.67
2023-02-23T23:16:28.884Z,22.73
2023-02-23T23:19:02.375Z,23.10
2023-02-23T23:21:32.063Z,22.83
2023-02-23T23:24:02.913Z,23.10
2023-02-23T23:26:33.328Z,25.80
2023-02-23T23:29:04.663Z,23.63
2023-02-23T23:31:34.833Z,22.47
2023-02-23T23:34:06.047Z,21.93
2023-02-23T23:36:38.061Z,22.50
2023-02-23T23:39:07.231Z,23.50
2023-02-23T23:41:37.082Z,22.87
2023-02-23T23:44:05.783Z,22.53
2023-02-23T23:46:37.498Z,22.27
2023-02-23T23:49:08.200Z,23.10
2023-02-23T23:51:38.877Z,23.53
2023-02-23T23:54:08.604Z,23.10
2023-02-23T23:56:38.240Z,21.60
2023-02-23T23:59:08.201Z,22.60
